Time;durP1;ratioP1;P1;durP2;ratioP2;P2;SDS_P1;SDS_P2;PMS_P1;PMS_P2;Temp;Humidity;BMP_temperature;BMP_pressure;BME280_temperature;BME280_humidity;BME280_pressure;Samples;Min_cycle;Max_cycle;Signal;HPM_P1;HPM_P2
2022/11/12 00:00:30;;;;;;;;;;;;;;;7.64;88.00;101141.50;5033902;28;19925;-68
2022/11/12 00:03:10;;;;;;;;;;;;;;;7.62;88.07;101145.66;5033936;28;19925;-70
2022/11/12 00:05:50;;;;;;;;;;;;;;;7.55;88.08;101148.81;5034168;28;20279;-69
2022/11/12 00:08:31;;;;;;;;;;;;;;;7.54;88.18;101148.75;5034127;28;20352;-69
2022/11/12 00:11:10;;;;;;;;;;;;;;;7.53;88.42;101150.44;5034157;28;19932;-70
2022/11/12 00:13:50;;;;;;;;;;;;;;;7.58;88.46;101150.59;5033675;28;20380;-70
2022/11/12 00:16:29;;;;;;;;;;;;;;;7.52;88.39;101147.81;5033722;28;19932;-69
2022/11/12 00:19:09;;;;;;;;;;;;;;;7.48;88.11;101151.94;5033743;28;19931;-70
2022/11/12 00:21:48;;;;;;;;;;;;;;;7.51;87.88;101157.13;5033721;28;19925;-70
2022/11/12 00:24:29;;;;;;;;;;;;;;;7.48;88.66;101153.63;5034218;28;19951;-70
2022/11/12 00:27:07;;;;;;;;;;;;;;;7.45;88.62;101141.69;5033905;28;20279;-70
2022/11/12 00:29:47;;;;;;;;;;;;;;;7.38;88.59;101134.66;5033976;28;19925;-70
2022/11/12 00:32:26;;;;;;;;;;;;;;;7.44;88.36;101139.94;5033417;28;19956;-70
2022/11/12 00:35:06;;;;;;;;;;;;;;;7.46;88.31;101132.38;5033829;28;19975;-70
2022/11/12 00:37:55;;;;;;;;;;;;;;;7.44;88.39;101134.84;5033923;28;19932;-69
2022/11/12 00:40:37;;;;;;;;;;;;;;;7.46;88.80;101140.00;5033594;28;19925;-69
2022/11/12 00:43:17;;;;;;;;;;;;;;;7.32;88.37;101130.22;5033470;28;19948;-70
2022/11/12 00:45:56;;;;;;;;;;;;;;;7.30;88.01;101128.41;5033477;28;19939;-70
2022/11/12 00:48:35;;;;;;;;;;;;;;;7.23;88.16;101129.03;5033487;28;19932;-70
2022/11/12 00:51:15;;;;;;;;;;;;;;;7.25;88.28;101124.84;5033459;28;20003;-70
2022/11/12 00:53:54;;;;;;;;;;;;;;;7.26;88.09;101124.06;5033375;28;20008;-70
2022/11/12 00:56:35;;;;;;;;;;;;;;;7.27;88.16;101130.88;5033316;28;19983;-70
2022/11/12 00:59:14;;;;;;;;;;;;;;;7.29;88.39;101121.63;5033660;28;19944;-71
2022/11/12 01:01:54;;;;;;;;;;;;;;;7.29;88.57;101124.19;5037373;28;19952;-71
2022/11/12 01:04:33;;;;;;;;;;;;;;;7.27;88.39;101115.66;5036988;28;20363;-70
2022/11/12 01:07:14;;;;;;;;;;;;;;;7.24;88.71;101115.53;5037257;28;19925;-70
2022/11/12 01:09:54;;;;;;;;;;;;;;;7.20;88.73;101118.75;5037210;28;19971;-70
2022/11/12 01:12:35;;;;;;;;;;;;;;;7.21;88.48;101118.81;5036870;28;19926;-70
2022/11/12 01:15:15;;;;;;;;;;;;;;;7.21;88.94;101105.25;5036713;28;19933;-70
2022/11/12 01:17:54;;;;;;;;;;;;;;;7.25;88.19;101105.41;5036781;28;19925;-70
2022/11/12 01:20:34;;;;;;;;;;;;;;;7.30;88.72;101108.09;5037313;28;20248;-70
2022/11/12 01:23:13;;;;;;;;;;;;;;;7.32;88.52;101109.91;5036684;28;19925;-70
2022/11/12 01:25:52;;;;;;;;;;;;;;;7.33;88.34;101108.22;5036844;28;19964;-70
2022/11/12 01:28:33;;;;;;;;;;;;;;;7.36;89.11;101103.25;5036552;28;19951;-71
2022/11/12 01:31:14;;;;;;;;;;;;;;;7.37;88.12;101097.34;5036151;28;19925;-70
2022/11/12 01:33:55;;;;;;;;;;;;;;;7.37;88.86;101092.28;5036731;28;20318;-70
2022/11/12 01:36:35;;;;;;;;;;;;;;;7.30;88.71;101085.25;5036277;28;19931;-71
2022/11/12 01:39:15;;;;;;;;;;;;;;;7.32;88.40;101083.63;5036341;28;19975;-70
2022/11/12 01:41:54;;;;;;;;;;;;;;;7.31;88.99;101087.00;5037162;28;20393;-70
2022/11/12 01:44:35;;;;;;;;;;;;;;;7.27;89.05;101086.00;5036284;28;19979;-70
2022/11/12 01:47:19;;;;;;;;;;;;;;;7.22;89.06;101094.31;5036100;28;19925;-70
2022/11/12 01:50:01;;;;;;;;;;;;;;;7.19;89.07;101091.66;5036117;28;19932;-70
2022/11/12 01:52:43;;;;;;;;;;;;;;;7.25;88.99;101096.91;5036095;28;19925;-70
2022/11/12 01:55:23;;;;;;;;;;;;;;;7.28;88.80;101092.84;5036026;28;19932;-70
2022/11/12 01:58:06;;;;;;;;;;;;;;;7.29;89.06;101094.53;5036035;28;19928;-70
2022/11/12 02:00:48;;;;;;;;;;;;;;;7.31;88.82;101092.06;5035975;28;19932;-70
2022/11/12 02:03:26;;;;;;;;;;;;;;;7.28;88.48;101086.88;5036209;28;19929;-70
2022/11/12 02:06:07;;;;;;;;;;;;;;;7.24;88.33;101090.13;5035891;28;20017;-70
2022/11/12 02:08:48;;;;;;;;;;;;;;;7.19;88.88;101086.56;5035777;28;19932;-71
2022/11/12 02:11:28;;;;;;;;;;;;;;;7.16;88.93;101076.28;5034926;28;19925;-70
2022/11/12 02:14:06;;;;;;;;;;;;;;;7.15;89.35;101084.75;5035978;28;19926;-71
2022/11/12 02:16:49;;;;;;;;;;;;;;;7.18;89.04;101087.38;5035841;28;19929;-70
2022/11/12 02:19:28;;;;;;;;;;;;;;;7.15;89.71;101077.97;5035598;28;19953;-70
2022/11/12 02:22:09;;;;;;;;;;;;;;;7.16;88.56;101078.84;5035931;28;20067;-71
2022/11/12 02:24:49;;;;;;;;;;;;;;;7.19;89.40;101081.50;5035472;28;19925;-70
2022/11/12 02:27:28;;;;;;;;;;;;;;;7.19;88.79;101078.94;5035694;28;19925;-70
2022/11/12 02:30:08;;;;;;;;;;;;;;;7.23;89.79;101075.69;5035386;28;19931;-70
2022/11/12 02:32:47;;;;;;;;;;;;;;;7.19;88.71;101068.78;5035157;28;19932;-70
2022/11/12 02:35:27;;;;;;;;;;;;;;;7.19;89.07;101066.25;5035292;28;19984;-70
2022/11/12 02:38:08;;;;;;;;;;;;;;;7.21;88.91;101059.56;5035143;28;19936;-70
2022/11/12 02:40:47;;;;;;;;;;;;;;;7.26;89.30;101069.06;5035266;28;19975;-70
2022/11/12 02:43:27;;;;;;;;;;;;;;;7.34;89.40;101071.88;5035141;28;20379;-71
2022/11/12 02:46:07;;;;;;;;;;;;;;;7.36;89.29;101071.13;5035056;28;19933;-70
2022/11/12 02:48:46;;;;;;;;;;;;;;;7.31;89.81;101061.59;5035312;28;19929;-70
2022/11/12 02:51:26;;;;;;;;;;;;;;;7.31;89.78;101064.16;5034993;28;19929;-70
2022/11/12 02:54:07;;;;;;;;;;;;;;;7.32;89.25;101063.31;5035245;28;19932;-70
2022/11/12 02:56:46;;;;;;;;;;;;;;;7.33;89.75;101063.38;5035144;28;19929;-70
2022/11/12 02:59:26;;;;;;;;;;;;;;;7.34;89.98;101071.88;5035139;28;19932;-69
2022/11/12 03:02:04;;;;;;;;;;;;;;;7.40;89.87;101083.09;5034776;28;19925;-70
2022/11/12 03:04:43;;;;;;;;;;;;;;;7.43;89.00;101082.34;5035092;28;19925;-70
2022/11/12 03:07:26;;;;;;;;;;;;;;;7.37;89.41;101077.03;5034983;28;20043;-70
2022/11/12 03:10:08;;;;;;;;;;;;;;;7.36;89.84;101080.41;5034592;28;19925;-71
2022/11/12 03:12:47;;;;;;;;;;;;;;;7.38;89.74;101087.25;5034618;28;19931;-70
2022/11/12 03:15:26;;;;;;;;;;;;;;;7.43;89.42;101087.41;5034556;28;19928;-69
2022/11/12 03:18:06;;;;;;;;;;;;;;;7.45;89.81;101080.72;5034773;28;19932;-70
2022/11/12 03:20:45;;;;;;;;;;;;;;;7.43;89.08;101093.38;5034745;28;20389;-69
2022/11/12 03:23:26;;;;;;;;;;;;;;;7.42;89.73;101086.56;5034647;28;20395;-70
2022/11/12 03:26:07;;;;;;;;;;;;;;;7.40;89.50;101089.84;5034403;28;19931;-70
2022/11/12 03:28:47;;;;;;;;;;;;;;;7.32;89.35;101083.63;5034633;28;19968;-70
2022/11/12 03:31:25;;;;;;;;;;;;;;;7.26;89.77;101078.34;5034054;28;19933;-70
2022/11/12 03:34:04;;;;;;;;;;;;;;;7.21;89.45;101079.84;5034603;28;19925;-69
2022/11/12 03:36:43;;;;;;;;;;;;;;;7.20;89.28;101079.00;5034161;28;19925;-69
2022/11/12 03:39:23;;;;;;;;;;;;;;;7.20;89.82;101073.91;5034727;28;20283;-70
2022/11/12 03:42:03;;;;;;;;;;;;;;;7.19;89.43;101076.41;5034190;28;19925;-70
2022/11/12 03:44:44;;;;;;;;;;;;;;;7.16;89.30;101079.69;5034157;28;19928;-70
2022/11/12 03:47:23;;;;;;;;;;;;;;;7.18;89.45;101072.13;5034362;28;20391;-70
2022/11/12 03:50:02;;;;;;;;;;;;;;;7.15;89.74;101070.34;5034287;28;20368;-70
2022/11/12 03:52:44;;;;;;;;;;;;;;;7.16;89.44;101081.38;5034317;28;20397;-70
2022/11/12 03:55:28;;;;;;;;;;;;;;;7.19;89.80;101084.03;5034600;28;20356;-71
2022/11/12 03:58:08;;;;;;;;;;;;;;;7.15;89.02;101075.41;5033911;28;19925;-71
2022/11/12 04:00:46;;;;;;;;;;;;;;;7.14;89.84;101080.47;5033891;28;19975;-70
2022/11/12 04:03:25;;;;;;;;;;;;;;;7.07;89.57;101081.06;5033921;28;20375;-70
2022/11/12 04:08:55;;;;;;;;;;;;;;;7.03;89.42;101076.69;5033853;28;19925;-71
2022/11/12 04:11:34;;;;;;;;;;;;;;;6.98;89.48;101083.28;5033784;28;19925;-70
2022/11/12 04:14:14;;;;;;;;;;;;;;;6.92;89.58;101083.03;5034098;28;19956;-70
2022/11/12 04:22:38;;;;;;;;;;;;;;;6.99;89.33;101067.22;5016423;28;19929;-71
2022/11/12 04:28:07;;;;;;;;;;;;;;;7.01;89.11;101063.06;5033707;28;20415;-70
2022/11/12 04:30:47;;;;;;;;;;;;;;;6.97;88.95;101063.75;5033587;28;19929;-70
2022/11/12 04:33:27;;;;;;;;;;;;;;;6.93;89.58;101070.41;5033893;28;19984;-70
2022/11/12 04:36:06;;;;;;;;;;;;;;;6.84;89.28;101066.69;5035977;28;19971;-69
2022/11/12 04:38:45;;;;;;;;;;;;;;;6.80;89.18;101065.69;5037414;28;19925;-69
2022/11/12 04:47:05;;;;;;;;;;;;;;;6.74;89.32;101056.16;5037615;28;19925;-69
2022/11/12 04:49:45;;;;;;;;;;;;;;;6.71;89.32;101061.16;5037375;28;19929;-70
2022/11/12 04:52:24;;;;;;;;;;;;;;;6.71;89.44;101071.31;5037520;28;19933;-70
2022/11/12 04:55:04;;;;;;;;;;;;;;;6.69;89.59;101072.06;5037480;28;19925;-70
2022/11/12 04:57:44;;;;;;;;;;;;;;;6.62;89.32;101065.88;5037101;28;19972;-70
2022/11/12 05:00:22;;;;;;;;;;;;;;;6.58;89.58;101069.09;5037141;28;19925;-70
2022/11/12 05:03:03;;;;;;;;;;;;;;;6.59;89.05;101062.38;5035930;28;19968;-69
2022/11/12 05:05:42;;;;;;;;;;;;;;;6.52;89.21;101066.34;5037246;28;19971;-70
2022/11/12 05:08:21;;;;;;;;;;;;;;;6.53;89.10;101063.00;5036915;28;19932;-70
2022/11/12 05:11:00;;;;;;;;;;;;;;;6.49;89.30;101073.84;5037211;28;19925;-70
2022/11/12 05:13:40;;;;;;;;;;;;;;;6.40;89.45;101068.44;5036825;28;19925;-70
2022/11/12 05:16:19;;;;;;;;;;;;;;;6.36;89.34;101065.72;5036798;28;19929;-69
2022/11/12 05:19:00;;;;;;;;;;;;;;;6.33;89.14;101065.59;5037065;28;20347;-69
2022/11/12 05:24:29;;;;;;;;;;;;;;;6.30;89.20;101066.34;5036613;28;19928;-70
2022/11/12 05:27:21;;;;;;;;;;;;;;;6.29;89.12;101068.81;5036541;28;19925;-70
2022/11/12 05:30:00;;;;;;;;;;;;;;;6.30;89.07;101062.94;5036489;28;19926;-70
2022/11/12 05:32:40;;;;;;;;;;;;;;;6.22;88.93;101065.16;5036320;28;19926;-70
2022/11/12 05:35:20;;;;;;;;;;;;;;;6.23;89.20;101069.44;5036694;28;19929;-70
2022/11/12 05:38:00;;;;;;;;;;;;;;;6.22;88.62;101067.72;5036290;28;19995;-71
2022/11/12 05:40:44;;;;;;;;;;;;;;;6.21;88.67;101070.19;5036432;28;19929;-71
2022/11/12 05:43:24;;;;;;;;;;;;;;;6.23;88.66;101078.72;5036192;28;19925;-70
2022/11/12 05:46:03;;;;;;;;;;;;;;;6.25;88.19;101072.91;5035001;28;19925;-70
2022/11/12 05:48:43;;;;;;;;;;;;;;;6.30;88.78;101075.63;5036499;28;19932;-70
2022/11/12 05:51:24;;;;;;;;;;;;;;;6.36;88.48;101075.88;5036483;28;19928;-72
2022/11/12 05:54:04;;;;;;;;;;;;;;;6.35;89.31;101080.06;5036037;28;19931;-70
2022/11/12 05:56:43;;;;;;;;;;;;;;;6.35;88.69;101069.91;5036315;28;19925;-71
2022/11/12 05:59:23;;;;;;;;;;;;;;;6.38;89.00;101082.69;5035898;28;19932;-71
2022/11/12 06:02:02;;;;;;;;;;;;;;;6.45;88.91;101086.34;5035889;28;19925;-71
2022/11/12 06:04:42;;;;;;;;;;;;;;;6.51;89.12;101086.56;5036183;28;19925;-70
2022/11/12 06:07:24;;;;;;;;;;;;;;;6.53;89.08;101084.94;5036417;28;19932;-71
2022/11/12 06:10:03;;;;;;;;;;;;;;;6.48;88.83;101089.84;5035774;28;19961;-71
2022/11/12 06:12:42;;;;;;;;;;;;;;;6.45;88.86;101097.38;5036049;28;19925;-71
2022/11/12 06:15:25;;;;;;;;;;;;;;;6.46;89.04;101098.22;5035693;28;19925;-70
2022/11/12 06:18:05;;;;;;;;;;;;;;;6.53;88.65;101106.13;5035843;28;19929;-70
2022/11/12 06:21:18;;;;;;;;;;;;;;;6.49;88.65;101098.34;5035541;28;19978;-71
2022/11/12 06:23:45;;;;;;;;;;;;;;;6.40;88.92;101101.41;5035414;28;19925;-69
2022/11/12 06:26:25;;;;;;;;;;;;;;;6.46;88.69;101109.22;5035794;28;20395;-70
2022/11/12 06:29:04;;;;;;;;;;;;;;;6.47;88.65;101110.97;5035771;28;19932;-70
2022/11/12 06:31:44;;;;;;;;;;;;;;;6.45;88.49;101112.59;5035156;28;20379;-70
2022/11/12 06:34:23;;;;;;;;;;;;;;;6.49;89.08;101113.53;5035592;28;19932;-70
2022/11/12 06:37:03;;;;;;;;;;;;;;;6.53;89.29;101111.19;5035309;28;19932;-70
2022/11/12 06:39:44;;;;;;;;;;;;;;;6.56;88.66;101111.31;5035082;28;19926;-70
2022/11/12 06:42:23;;;;;;;;;;;;;;;6.63;89.24;101118.34;5035508;28;19979;-70
2022/11/12 06:45:03;;;;;;;;;;;;;;;6.68;89.05;101116.84;5034602;28;19925;-71
2022/11/12 06:47:42;;;;;;;;;;;;;;;6.75;89.25;101128.09;5034926;28;19931;-68
2022/11/12 06:50:21;;;;;;;;;;;;;;;6.70;89.60;101115.22;5035039;28;19964;-70
2022/11/12 06:53:01;;;;;;;;;;;;;;;6.70;89.71;101120.31;5034915;28;19925;-70
2022/11/12 06:55:42;;;;;;;;;;;;;;;6.69;89.84;101118.56;5034921;28;19932;-70
2022/11/12 06:58:21;;;;;;;;;;;;;;;6.75;90.20;101118.81;5034432;28;19932;-70
2022/11/12 07:01:04;;;;;;;;;;;;;;;6.84;89.07;101118.28;5035055;28;19933;-71
2022/11/12 07:03:51;;;;;;;;;;;;;;;6.85;89.20;101116.59;5034403;28;19935;-71
2022/11/12 07:06:30;;;;;;;;;;;;;;;6.79;89.33;101118.94;5034518;28;20012;-71
2022/11/12 07:09:10;;;;;;;;;;;;;;;6.76;89.52;101122.22;5034569;28;19967;-71
2022/11/12 07:11:52;;;;;;;;;;;;;;;6.75;89.17;101123.00;5034573;28;19929;-71
2022/11/12 07:14:31;;;;;;;;;;;;;;;6.82;89.70;101119.03;5034153;28;20379;-71
2022/11/12 07:17:10;;;;;;;;;;;;;;;6.88;89.35;101124.34;5033876;28;19940;-72
2022/11/12 07:19:49;;;;;;;;;;;;;;;6.87;89.97;101126.00;5033773;28;19933;-71
2022/11/12 07:22:29;;;;;;;;;;;;;;;6.87;90.04;101127.66;5031678;28;19934;-71
2022/11/12 07:25:08;;;;;;;;;;;;;;;6.92;89.85;101131.25;5031954;28;20026;-71
2022/11/12 07:27:49;;;;;;;;;;;;;;;6.96;89.36;101126.34;5033953;28;19932;-71
2022/11/12 07:30:28;;;;;;;;;;;;;;;7.02;89.60;101123.16;5033932;28;19948;-71
2022/11/12 07:33:08;;;;;;;;;;;;;;;7.19;90.48;101129.72;5014669;28;20410;-71
2022/11/12 07:35:47;;;;;;;;;;;;;;;7.38;90.49;101129.56;5014799;28;19933;-70
2022/11/12 07:38:27;;;;;;;;;;;;;;;7.49;89.73;101133.34;5014326;28;19926;-70
2022/11/12 07:41:10;;;;;;;;;;;;;;;7.58;89.62;101127.72;5014319;28;19925;-70
2022/11/12 07:43:52;;;;;;;;;;;;;;;7.70;89.38;101134.06;5014667;28;19933;-70
2022/11/12 07:46:32;;;;;;;;;;;;;;;7.83;89.26;101131.16;5014518;28;19937;-70
2022/11/12 07:49:10;;;;;;;;;;;;;;;7.95;89.29;101136.63;5014249;28;19929;-70
2022/11/12 07:51:50;;;;;;;;;;;;;;;8.04;88.83;101131.84;5014333;28;20440;-70
2022/11/12 07:54:29;;;;;;;;;;;;;;;8.08;88.44;101133.69;5014220;28;19925;-70
2022/11/12 07:57:07;;;;;;;;;;;;;;;8.15;89.15;101136.41;5013961;28;19932;-70
2022/11/12 07:59:48;;;;;;;;;;;;;;;8.18;88.34;101139.06;4997647;28;19932;-70
2022/11/12 08:02:28;;;;;;;;;;;;;;;8.25;88.60;101146.09;5014344;28;20368;-70
2022/11/12 08:05:07;;;;;;;;;;;;;;;8.36;88.39;101149.84;5013754;28;19965;-70
2022/11/12 08:07:56;;;;;;;;;;;;;;;8.39;88.49;101155.03;5014107;28;20406;-70
2022/11/12 08:10:36;;;;;;;;;;;;;;;8.45;87.88;101155.22;5015659;28;19926;-70
2022/11/12 08:13:16;;;;;;;;;;;;;;;8.56;87.90;101158.97;5018275;28;19979;-70
2022/11/12 08:15:58;;;;;;;;;;;;;;;8.71;88.22;101159.44;5018035;28;20004;-70
2022/11/12 08:18:38;;;;;;;;;;;;;;;8.89;88.08;101170.19;5018144;28;19926;-70
2022/11/12 08:21:18;;;;;;;;;;;;;;;9.10;87.43;101165.72;5018004;28;19941;-71
2022/11/12 08:23:57;;;;;;;;;;;;;;;9.32;87.25;101162.97;5018309;28;19933;-70
2022/11/12 08:26:37;;;;;;;;;;;;;;;9.56;87.39;101172.97;5018296;28;19925;-71
2022/11/12 08:29:16;;;;;;;;;;;;;;;9.77;86.58;101162.47;5017919;28;20012;-71
2022/11/12 08:31:57;;;;;;;;;;;;;;;9.85;86.32;101169.50;5017544;28;19926;-70
2022/11/12 08:34:40;;;;;;;;;;;;;;;10.02;85.86;101169.94;5018239;28;20256;-70
2022/11/12 08:37:19;;;;;;;;;;;;;;;10.11;85.49;101172.72;5017690;28;19933;-71
2022/11/12 08:39:59;;;;;;;;;;;;;;;10.12;85.24;101164.28;5017952;28;19925;-71
2022/11/12 08:42:38;;;;;;;;;;;;;;;10.16;84.82;101166.06;5017904;28;19925;-70
2022/11/12 08:45:18;;;;;;;;;;;;;;;10.43;84.98;101169.31;5017773;28;20291;-70
2022/11/12 08:48:00;;;;;;;;;;;;;;;10.72;84.48;101163.16;5017909;28;19947;-71
2022/11/12 08:50:40;;;;;;;;;;;;;;;10.86;83.72;101171.16;5017476;28;20268;-71
2022/11/12 08:53:18;;;;;;;;;;;;;;;11.02;83.15;101172.31;5017821;28;20392;-71
2022/11/12 08:55:58;;;;;;;;;;;;;;;11.20;82.63;101172.72;5017621;28;19925;-70
2022/11/12 08:58:37;;;;;;;;;;;;;;;11.45;81.67;101174.94;5017976;28;20367;-70
2022/11/12 09:01:18;;;;;;;;;;;;;;;11.69;81.00;101177.13;5017346;28;19948;-70
2022/11/12 09:03:58;;;;;;;;;;;;;;;11.88;79.68;101174.94;5017198;28;19926;-70
2022/11/12 09:06:37;;;;;;;;;;;;;;;12.06;78.76;101182.09;5017237;28;19925;-70
2022/11/12 09:09:15;;;;;;;;;;;;;;;12.22;77.90;101183.19;5017403;28;19931;-70
2022/11/12 09:11:55;;;;;;;;;;;;;;;12.47;77.27;101185.31;5017075;28;19956;-71
2022/11/12 09:14:33;;;;;;;;;;;;;;;12.61;76.69;101179.56;5017053;28;19925;-70
2022/11/12 09:17:13;;;;;;;;;;;;;;;12.84;76.18;101186.75;5016957;28;19975;-70
2022/11/12 09:19:54;;;;;;;;;;;;;;;12.97;74.94;101183.50;5016894;28;19925;-70
2022/11/12 09:22:32;;;;;;;;;;;;;;;13.14;74.57;101172.66;5017273;28;19933;-70
2022/11/12 09:25:11;;;;;;;;;;;;;;;13.24;73.76;101182.22;5017096;28;19936;-71
2022/11/12 09:27:51;;;;;;;;;;;;;;;13.23;73.46;101188.16;5016764;28;19926;-70
2022/11/12 09:30:30;;;;;;;;;;;;;;;13.41;73.04;101188.38;5016568;28;20015;-71
2022/11/12 09:33:10;;;;;;;;;;;;;;;13.47;72.19;101189.28;5017033;28;20368;-71
2022/11/12 09:35:52;;;;;;;;;;;;;;;13.56;71.83;101182.56;5016921;28;19948;-70
2022/11/12 09:38:31;;;;;;;;;;;;;;;13.67;71.64;101186.13;5016895;28;20360;-70
2022/11/12 09:41:16;;;;;;;;;;;;;;;13.69;71.27;101188.69;5016505;28;19929;-70
2022/11/12 09:43:58;;;;;;;;;;;;;;;13.81;71.12;101183.69;5016473;28;19965;-70
2022/11/12 09:46:43;;;;;;;;;;;;;;;14.00;71.31;101185.59;5016810;28;20025;-70
2022/11/12 09:49:25;;;;;;;;;;;;;;;14.13;70.53;101182.31;5016559;28;20012;-70
2022/11/12 09:52:10;;;;;;;;;;;;;;;14.19;70.61;101187.50;5016212;28;19931;-69
2022/11/12 09:54:51;;;;;;;;;;;;;;;14.32;70.65;101189.38;5016367;28;20020;-70
2022/11/12 09:57:32;;;;;;;;;;;;;;;14.47;70.29;101174.03;5016578;28;19976;-70
2022/11/12 10:00:14;;;;;;;;;;;;;;;14.53;69.80;101184.38;5016100;28;19926;-71
2022/11/12 10:02:56;;;;;;;;;;;;;;;14.56;69.92;101184.41;5015141;28;20385;-70
2022/11/12 10:05:39;;;;;;;;;;;;;;;14.60;69.64;101182.72;5016688;28;20343;-70
2022/11/12 10:08:25;;;;;;;;;;;;;;;14.58;69.37;101177.56;5016065;28;20004;-70
2022/11/12 10:11:13;;;;;;;;;;;;;;;14.64;69.56;101176.72;5016311;28;19948;-71
2022/11/12 10:14:00;;;;;;;;;;;;;;;14.78;69.53;101173.41;5016296;28;20020;-71
2022/11/12 10:16:46;;;;;;;;;;;;;;;15.05;69.01;101169.25;5015948;28;19926;-71
2022/11/12 10:19:32;;;;;;;;;;;;;;;15.26;68.24;101169.38;5015794;28;19926;-71
2022/11/12 10:22:19;;;;;;;;;;;;;;;15.37;67.19;101173.72;5015906;28;20376;-72
2022/11/12 10:25:10;;;;;;;;;;;;;;;15.46;66.95;101162.63;5016299;28;20300;-71
2022/11/12 10:27:50;;;;;;;;;;;;;;;15.59;66.97;101164.38;5016019;28;19925;-71
2022/11/12 10:30:30;;;;;;;;;;;;;;;15.62;66.53;101156.66;5015760;28;19926;-71
2022/11/12 10:33:11;;;;;;;;;;;;;;;15.70;66.05;101161.81;5015272;28;19925;-70
2022/11/12 10:35:53;;;;;;;;;;;;;;;15.70;66.06;101164.38;5015485;28;19926;-71
2022/11/12 10:38:33;;;;;;;;;;;;;;;15.81;65.72;101160.97;5015494;28;19925;-71
2022/11/12 10:41:20;;;;;;;;;;;;;;;15.86;65.41;101154.13;5015733;28;19991;-71
2022/11/12 10:44:00;;;;;;;;;;;;;;;15.92;65.44;101156.72;5015248;28;19929;-71
2022/11/12 10:46:40;;;;;;;;;;;;;;;16.04;65.43;101153.28;5015350;28;19925;-71
2022/11/12 10:49:23;;;;;;;;;;;;;;;16.24;65.39;101161.91;5015267;28;20384;-71
2022/11/12 10:52:03;;;;;;;;;;;;;;;16.22;64.76;101158.44;5015567;28;19951;-71
2022/11/12 10:54:42;;;;;;;;;;;;;;;16.22;64.45;101158.44;5015234;28;19925;-71
2022/11/12 10:57:25;;;;;;;;;;;;;;;16.13;64.06;101167.88;5015122;28;19931;-71
2022/11/12 11:00:15;;;;;;;;;;;;;;;16.16;63.67;101165.31;5015322;28;19936;-71
2022/11/12 11:02:55;;;;;;;;;;;;;;;16.20;63.64;101160.16;5015102;28;19930;-72
2022/11/12 11:05:36;;;;;;;;;;;;;;;16.31;63.01;101147.28;5014987;28;19980;-71
2022/11/12 11:08:31;;;;;;;;;;;;;;;16.38;62.76;101154.16;5015003;28;19993;-70
2022/11/12 11:11:19;;;;;;;;;;;;;;;16.44;62.14;101154.13;5014855;28;19936;-70
2022/11/12 11:14:20;;;;;;;;;;;;;;;16.50;61.83;101146.41;5014857;28;19926;-71
2022/11/12 11:17:00;;;;;;;;;;;;;;;16.55;61.34;101150.75;5015085;28;19925;-71
2022/11/12 11:19:41;;;;;;;;;;;;;;;16.66;60.93;101142.97;5014755;28;19925;-71
2022/11/12 11:22:38;;;;;;;;;;;;;;;16.52;60.67;101153.31;5014949;28;19933;-70
2022/11/12 11:25:20;;;;;;;;;;;;;;;16.53;60.82;101149.03;5014606;28;19925;-71
2022/11/12 11:28:07;;;;;;;;;;;;;;;16.73;60.53;101142.09;5014624;28;19975;-72
2022/11/12 11:30:52;;;;;;;;;;;;;;;16.64;60.47;101144.69;5014358;28;19972;-71
2022/11/12 11:33:37;;;;;;;;;;;;;;;16.67;60.54;101139.53;5014668;28;19925;-71
2022/11/12 11:36:22;;;;;;;;;;;;;;;16.64;60.62;101136.97;5014631;28;20388;-71
2022/11/12 11:39:04;;;;;;;;;;;;;;;16.70;60.65;101136.94;5014839;28;20375;-71
2022/11/12 11:41:52;;;;;;;;;;;;;;;16.74;60.84;101134.38;5014597;28;19926;-71
2022/11/12 11:44:37;;;;;;;;;;;;;;;16.86;60.48;101132.59;5014487;28;19925;-71
2022/11/12 11:47:25;;;;;;;;;;;;;;;16.80;60.63;101123.16;5014429;28;20013;-71
2022/11/12 11:50:29;;;;;;;;;;;;;;;16.80;60.55;101125.75;5014355;28;19955;-71
2022/11/12 11:53:16;;;;;;;;;;;;;;;16.83;60.49;101125.75;5014304;28;20439;-71
2022/11/12 11:55:58;;;;;;;;;;;;;;;16.83;60.35;101118.00;5014658;28;19926;-72
2022/11/12 11:58:47;;;;;;;;;;;;;;;16.88;60.06;101120.56;5014259;28;19925;-71
2022/11/12 12:01:32;;;;;;;;;;;;;;;16.88;59.88;101115.41;5014175;28;19925;-71
2022/11/12 12:04:22;;;;;;;;;;;;;;;16.93;59.65;101114.53;5014626;28;20349;-71
2022/11/12 12:07:09;;;;;;;;;;;;;;;16.91;59.22;101105.94;5014435;28;19932;-72
2022/11/12 12:09:55;;;;;;;;;;;;;;;16.91;58.97;101105.09;5014447;28;20035;-71
2022/11/12 12:12:41;;;;;;;;;;;;;;;16.87;58.98;101104.22;5014281;28;19925;-71
2022/11/12 12:15:29;;;;;;;;;;;;;;;16.89;58.58;101112.84;5014103;28;19929;-71
2022/11/12 12:18:16;;;;;;;;;;;;;;;16.90;58.28;101103.34;5014032;28;20021;-71
2022/11/12 12:21:00;;;;;;;;;;;;;;;16.95;58.05;101102.47;5013989;28;19929;-71
2022/11/12 12:23:46;;;;;;;;;;;;;;;16.89;58.00;101106.81;5013972;28;19949;-72
2022/11/12 12:26:26;;;;;;;;;;;;;;;17.08;58.17;101118.78;5013947;28;19930;-71
2022/11/12 12:29:08;;;;;;;;;;;;;;;17.10;58.06;101107.59;5014262;28;20356;-71
2022/11/12 12:31:49;;;;;;;;;;;;;;;17.14;57.78;101108.41;5013791;28;20299;-71
2022/11/12 12:34:31;;;;;;;;;;;;;;;17.13;57.68;101107.56;5013894;28;19925;-71
2022/11/12 12:37:16;;;;;;;;;;;;;;;17.06;57.80;101103.28;5013005;28;19925;-72
2022/11/12 12:40:02;;;;;;;;;;;;;;;16.97;58.00;101100.75;5013966;28;19941;-72
2022/11/12 12:42:43;;;;;;;;;;;;;;;16.98;58.29;101102.47;5013824;28;19926;-71
2022/11/12 12:45:27;;;;;;;;;;;;;;;17.08;58.21;101099.00;5013758;28;19925;-72
2022/11/12 12:48:17;;;;;;;;;;;;;;;17.22;58.05;101099.78;5014125;28;20352;-71
2022/11/12 12:50:57;;;;;;;;;;;;;;;17.27;58.32;101099.75;5014039;28;19942;-71
2022/11/12 12:53:37;;;;;;;;;;;;;;;17.24;57.72;101094.63;5014045;28;19926;-71
2022/11/12 12:56:37;;;;;;;;;;;;;;;17.17;57.33;101093.78;5015584;28;19925;-71
2022/11/12 12:59:20;;;;;;;;;;;;;;;17.11;57.63;101093.81;5017223;28;19933;-72
2022/11/12 13:02:00;;;;;;;;;;;;;;;17.06;58.01;101095.53;5017216;28;19925;-71
2022/11/12 13:04:49;;;;;;;;;;;;;;;17.03;58.06;101095.59;5017394;28;19925;-71
2022/11/12 13:07:40;;;;;;;;;;;;;;;17.07;58.27;101097.28;5017151;28;19957;-71
2022/11/12 13:10:30;;;;;;;;;;;;;;;17.08;58.02;101099.00;5017195;28;19932;-71
2022/11/12 13:13:25;;;;;;;;;;;;;;;16.97;58.17;101095.59;5017450;28;20295;-72
2022/11/12 13:16:11;;;;;;;;;;;;;;;16.87;58.26;101093.06;5016963;28;19925;-72
2022/11/12 13:18:58;;;;;;;;;;;;;;;16.75;58.55;101101.69;5016961;28;19925;-72
2022/11/12 13:21:36;;;;;;;;;;;;;;;16.63;59.00;101088.81;5016904;28;19933;-71
2022/11/12 13:24:16;;;;;;;;;;;;;;;16.54;59.19;101096.59;5016884;28;19925;-71
2022/11/12 13:26:55;;;;;;;;;;;;;;;16.46;59.67;101090.59;5016838;28;19930;-71
2022/11/12 13:29:44;;;;;;;;;;;;;;;16.33;60.26;101092.31;5016813;28;20383;-71
2022/11/12 13:32:28;;;;;;;;;;;;;;;16.20;60.63;101092.31;5016603;28;19926;-71
2022/11/12 13:35:15;;;;;;;;;;;;;;;16.10;61.11;101106.91;5016762;28;20363;-71
2022/11/12 13:37:56;;;;;;;;;;;;;;;15.99;61.42;101101.78;5016646;28;19932;-71
2022/11/12 13:40:38;;;;;;;;;;;;;;;15.86;61.64;101107.78;5016639;28;19964;-71
2022/11/12 13:43:30;;;;;;;;;;;;;;;15.77;61.76;101110.34;5016806;28;20319;-71
2022/11/12 13:46:30;;;;;;;;;;;;;;;15.69;61.95;101112.03;5016585;28;19957;-71
2022/11/12 13:49:14;;;;;;;;;;;;;;;15.55;62.53;101111.16;5016703;28;20388;-71
2022/11/12 13:51:55;;;;;;;;;;;;;;;15.44;62.74;101117.97;5016722;28;20372;-71
2022/11/12 13:54:36;;;;;;;;;;;;;;;15.32;63.49;101110.22;5016637;28;19926;-72
2022/11/12 13:57:27;;;;;;;;;;;;;;;15.25;64.01;101111.06;5016344;28;19948;-71
2022/11/12 14:00:08;;;;;;;;;;;;;;;15.14;64.13;101112.75;5016207;28;19926;-71
2022/11/12 14:02:50;;;;;;;;;;;;;;;15.03;64.73;101106.69;5016168;28;19933;-71
2022/11/12 14:05:32;;;;;;;;;;;;;;;14.97;64.90;101104.09;5016458;28;19947;-71
2022/11/12 14:08:21;;;;;;;;;;;;;;;14.89;65.28;101110.91;5014981;28;19961;-71
2022/11/12 14:11:15;;;;;;;;;;;;;;;14.80;65.61;101105.72;5016156;28;19925;-71
2022/11/12 14:14:01;;;;;;;;;;;;;;;14.69;66.19;101097.94;5015924;28;19926;-71
2022/11/12 14:16:47;;;;;;;;;;;;;;;14.61;66.22;101105.63;5015921;28;20016;-71